createdAt,value
2022-12-16T00:04:51.708Z,28.67
2022-12-16T00:09:53.411Z,28.13
2022-12-16T00:14:57.588Z,29.30
2022-12-16T00:20:05.476Z,30.10
2022-12-16T00:25:07.661Z,28.77
2022-12-16T00:30:10.411Z,29.13
2022-12-16T00:35:15.437Z,29.37
2022-12-16T00:40:21.883Z,30.60
2022-12-16T00:45:26.247Z,29.20
2022-12-16T00:50:31.819Z,29.33
2022-12-16T00:55:34.488Z,29.47
2022-12-16T01:00:38.730Z,30.60
2022-12-16T01:05:42.889Z,30.23
2022-12-16T01:10:55.224Z,29.60
2022-12-16T01:16:03.133Z,31.33
2022-12-16T01:21:07.806Z,31.73
2022-12-16T01:26:17.032Z,31.77
2022-12-16T01:31:24.407Z,32.07
2022-12-16T01:36:26.493Z,32.00
2022-12-16T01:41:30.445Z,32.13
2022-12-16T01:46:34.347Z,33.70
2022-12-16T01:51:38.557Z,33.30
2022-12-16T01:56:46.859Z,33.43
2022-12-16T02:01:48.648Z,35.00
2022-12-16T02:06:52.785Z,34.53
2022-12-16T02:12:20.987Z,35.27
2022-12-16T02:18:02.559Z,36.63
2022-12-16T02:23:16.374Z,36.00
2022-12-16T02:28:34.207Z,34.83
2022-12-16T02:33:39.229Z,33.40
2022-12-16T02:38:56.565Z,35.23
2022-12-16T02:44:10.405Z,34.63
2022-12-16T02:49:12.069Z,32.73
2022-12-16T02:54:22.227Z,31.17
2022-12-16T02:59:57.929Z,31.47
2022-12-16T03:05:22.931Z,30.97
2022-12-16T03:10:32.005Z,30.07
2022-12-16T03:15:36.930Z,28.00
2022-12-16T03:21:00.710Z,28.97
2022-12-16T03:26:12.735Z,31.10
2022-12-16T03:31:25.685Z,31.80
2022-12-16T03:36:33.699Z,31.73
2022-12-16T03:41:38.981Z,31.30
2022-12-16T03:46:45.592Z,32.17
2022-12-16T03:51:47.319Z,33.40
2022-12-16T03:56:54.273Z,33.77
2022-12-16T04:01:58.364Z,33.07
2022-12-16T04:07:24.480Z,33.30
2022-12-16T04:12:47.465Z,32.23
2022-12-16T04:18:13.011Z,33.43
2022-12-16T04:23:33.458Z,35.17
2022-12-16T04:28:35.524Z,33.97
2022-12-16T04:33:56.132Z,34.50
2022-12-16T04:39:16.660Z,35.10
2022-12-16T04:44:36.960Z,35.07
2022-12-16T04:49:57.655Z,36.33
2022-12-16T04:55:20.611Z,37.60
2022-12-16T05:00:43.269Z,42.53
2022-12-16T05:06:06.088Z,42.70
2022-12-16T05:11:26.347Z,43.10
2022-12-16T05:16:47.401Z,41.27
2022-12-16T05:22:11.120Z,40.00
2022-12-16T05:27:31.635Z,40.83
2022-12-16T05:33:11.727Z,49.43
2022-12-16T05:38:32.525Z,46.10
2022-12-16T05:43:52.776Z,38.67
2022-12-16T05:49:15.040Z,37.67
2022-12-16T05:54:37.967Z,36.03
2022-12-16T05:59:57.988Z,35.50
2022-12-16T06:05:18.258Z,33.60
2022-12-16T06:10:38.338Z,35.27
2022-12-16T06:16:06.641Z,33.13
2022-12-16T06:21:29.598Z,35.20
2022-12-16T06:26:49.901Z,34.07
2022-12-16T06:32:10.451Z,36.57
2022-12-16T06:37:30.821Z,36.30
2022-12-16T06:42:51.181Z,35.93
2022-12-16T06:48:11.835Z,34.00
2022-12-16T06:53:32.549Z,32.43
2022-12-16T06:58:53.708Z,33.10
2022-12-16T07:04:16.246Z,32.20
2022-12-16T07:09:37.430Z,32.20
2022-12-16T07:14:58.438Z,32.10
2022-12-16T07:20:19.593Z,38.07
2022-12-16T07:25:39.836Z,36.93
2022-12-16T07:31:01.511Z,36.57
2022-12-16T07:36:21.643Z,34.40
2022-12-16T07:41:41.880Z,36.80
2022-12-16T07:47:04.558Z,34.53
2022-12-16T07:52:24.752Z,32.20
2022-12-16T07:57:47.260Z,32.53
2022-12-16T08:03:12.560Z,31.07
2022-12-16T08:08:32.809Z,31.30
2022-12-16T08:13:55.589Z,31.97
2022-12-16T08:19:16.413Z,31.90
2022-12-16T08:24:36.771Z,31.37
2022-12-16T08:29:59.205Z,30.77
2022-12-16T08:35:19.666Z,30.03
2022-12-16T08:40:42.574Z,30.60
2022-12-16T08:46:02.806Z,29.87
2022-12-16T08:51:25.425Z,29.30
2022-12-16T08:56:45.863Z,29.57
2022-12-16T09:02:06.426Z,30.47
2022-12-16T09:07:26.851Z,29.70
2022-12-16T09:12:47.384Z,27.63
2022-12-16T09:18:17.433Z,29.67
2022-12-16T09:23:37.659Z,27.13
2022-12-16T09:28:58.218Z,29.53
2022-12-16T09:34:19.297Z,29.87
2022-12-16T09:39:39.674Z,30.87
2022-12-16T09:45:09.932Z,30.53
2022-12-16T09:50:39.116Z,30.40
2022-12-16T09:56:14.372Z,31.73
2022-12-16T10:01:39.369Z,31.37
2022-12-16T10:07:05.263Z,31.47
2022-12-16T10:12:44.192Z,30.00
2022-12-16T10:18:04.971Z,30.53
2022-12-16T10:23:36.921Z,29.17
2022-12-16T10:29:08.053Z,32.73
2022-12-16T10:34:33.861Z,32.93
2022-12-16T10:39:56.842Z,28.17
2022-12-16T10:45:20.129Z,29.07
2022-12-16T10:50:40.720Z,43.63
2022-12-16T10:56:03.839Z,28.97
2022-12-16T11:01:40.645Z,30.17
2022-12-16T11:07:03.566Z,36.47
2022-12-16T11:12:53.208Z,30.60
2022-12-16T11:18:23.897Z,28.20
2022-12-16T11:23:46.869Z,27.60
2022-12-16T11:29:32.749Z,27.90
2022-12-16T11:35:10.086Z,28.20
2022-12-16T11:40:33.939Z,29.53
2022-12-16T11:45:54.304Z,26.87
2022-12-16T11:51:18.391Z,32.33
2022-12-16T11:56:42.231Z,31.07
2022-12-16T12:02:13.535Z,32.13
2022-12-16T12:07:44.857Z,37.33
2022-12-16T12:13:07.813Z,30.63
2022-12-16T12:19:24.198Z,33.77
2022-12-16T12:24:44.462Z,37.83
2022-12-16T12:30:11.632Z,40.07
2022-12-16T12:35:39.906Z,38.97
2022-12-16T12:41:29.443Z,39.67
2022-12-16T12:46:59.947Z,39.63
2022-12-16T12:52:45.886Z,40.60
2022-12-16T12:58:11.745Z,41.07
2022-12-16T13:03:55.183Z,40.30
2022-12-16T13:09:17.290Z,41.53
2022-12-16T13:14:50.054Z,41.97
2022-12-16T13:20:12.427Z,41.53
2022-12-16T13:26:07.528Z,40.33
2022-12-16T13:31:28.059Z,42.33
2022-12-16T13:36:53.239Z,41.03
2022-12-16T13:42:18.477Z,43.13
2022-12-16T13:47:54.159Z,40.57
2022-12-16T13:53:17.035Z,44.03
2022-12-16T13:58:56.690Z,41.83
2022-12-16T14:04:18.442Z,45.10
2022-12-16T14:10:00.098Z,43.63
2022-12-16T14:15:32.119Z,43.90
2022-12-16T14:21:03.516Z,45.13
2022-12-16T14:26:29.424Z,46.97
2022-12-16T14:31:56.544Z,44.57
2022-12-16T14:37:22.247Z,43.93
2022-12-16T14:42:47.052Z,43.50
2022-12-16T14:48:07.292Z,44.37
2022-12-16T14:53:39.379Z,45.50
2022-12-16T14:59:04.146Z,45.63
2022-12-16T15:04:32.160Z,43.30
2022-12-16T15:10:02.249Z,45.80
2022-12-16T15:15:25.723Z,50.73
2022-12-16T15:20:47.364Z,52.30
2022-12-16T15:26:11.150Z,53.07
2022-12-16T15:31:46.327Z,54.70
2022-12-16T15:37:09.679Z,58.57
2022-12-16T15:42:41.448Z,58.77
2022-12-16T15:48:09.221Z,58.10
2022-12-16T15:53:55.050Z,54.43
2022-12-16T15:59:42.232Z,52.00
2022-12-16T16:05:02.606Z,52.57
2022-12-16T16:10:56.400Z,58.60
2022-12-16T16:16:19.134Z,55.13
2022-12-16T16:21:41.495Z,59.40
2022-12-16T16:27:04.395Z,57.53
2022-12-16T16:32:27.727Z,51.73
2022-12-16T16:37:48.296Z,55.40
2022-12-16T16:43:08.519Z,56.83
2022-12-16T16:48:34.362Z,62.63
2022-12-16T16:53:56.998Z,54.90
2022-12-16T16:59:18.225Z,61.37
2022-12-16T17:04:44.929Z,72.90
2022-12-16T17:10:05.407Z,70.03
2022-12-16T17:15:37.887Z,60.07
2022-12-16T17:21:01.239Z,58.63
2022-12-16T17:26:24.249Z,77.57
2022-12-16T17:31:46.959Z,67.47
2022-12-16T17:37:08.269Z,62.40
2022-12-16T17:42:29.299Z,59.93
2022-12-16T17:47:55.242Z,59.37
2022-12-16T17:53:16.883Z,66.27
2022-12-16T17:58:37.801Z,61.60
2022-12-16T18:03:58.181Z,62.03
2022-12-16T18:09:20.972Z,75.23
2022-12-16T18:14:41.426Z,77.33
2022-12-16T18:20:01.931Z,77.03
2022-12-16T18:25:24.760Z,77.13
2022-12-16T18:30:44.796Z,74.90
2022-12-16T18:36:07.678Z,81.43
2022-12-16T18:41:37.044Z,80.20
2022-12-16T18:46:57.306Z,73.60
2022-12-16T18:52:18.550Z,77.33
2022-12-16T18:57:42.578Z,70.93
2022-12-16T19:03:02.628Z,79.00
2022-12-16T19:08:23.285Z,87.97
2022-12-16T19:13:45.471Z,81.60
2022-12-16T19:19:16.376Z,96.90
2022-12-16T19:24:39.866Z,106.13
2022-12-16T19:30:00.296Z,105.73
2022-12-16T19:35:20.599Z,99.80
2022-12-16T19:40:41.747Z,99.77
2022-12-16T19:46:02.407Z,82.97
2022-12-16T19:51:25.469Z,77.03
2022-12-16T19:56:45.896Z,94.03
2022-12-16T20:02:08.633Z,108.93
2022-12-16T20:07:34.911Z,91.53
2022-12-16T20:12:56.195Z,88.93
2022-12-16T20:18:22.980Z,75.83
2022-12-16T20:23:45.991Z,76.33
2022-12-16T20:29:06.819Z,78.43
2022-12-16T20:34:27.675Z,89.50
2022-12-16T20:39:56.880Z,101.27
2022-12-16T20:45:19.970Z,88.50
2022-12-16T20:50:40.912Z,85.10
2022-12-16T20:56:01.260Z,71.90
2022-12-16T21:01:24.593Z,96.00
2022-12-16T21:06:45.084Z,85.53
2022-12-16T21:12:08.297Z,84.33
2022-12-16T21:17:31.751Z,104.10
2022-12-16T21:22:52.074Z,88.47
2022-12-16T21:28:24.889Z,153.90
2022-12-16T21:33:45.638Z,101.83
2022-12-16T21:39:07.159Z,83.77
2022-12-16T21:44:27.410Z,77.33
2022-12-16T21:49:50.159Z,92.13
2022-12-16T21:55:10.386Z,90.00
2022-12-16T22:00:33.786Z,90.13
2022-12-16T22:05:54.193Z,113.40
2022-12-16T22:11:16.124Z,96.50
2022-12-16T22:16:38.506Z,83.60
2022-12-16T22:21:58.451Z,73.30
2022-12-16T22:27:18.888Z,72.83
2022-12-16T22:32:41.714Z,68.60
2022-12-16T22:38:02.090Z,62.97
2022-12-16T22:43:23.678Z,64.60
2022-12-16T22:48:44.005Z,69.63
2022-12-16T22:54:07.443Z,65.93
2022-12-16T22:59:27.797Z,72.43
2022-12-16T23:04:48.125Z,72.73
2022-12-16T23:10:08.548Z,70.27
2022-12-16T23:15:32.217Z,77.53
2022-12-16T23:20:52.627Z,78.10
2022-12-16T23:26:20.831Z,80.07
2022-12-16T23:31:41.258Z,81.70
2022-12-16T23:37:01.787Z,68.00
2022-12-16T23:42:23.574Z,77.67
2022-12-16T23:47:43.880Z,75.37
2022-12-16T23:53:04.000Z,76.33
2022-12-16T23:58:26.511Z,75.00
